createdAt,value
2023-12-22T00:00:37.776Z,11.49
2023-12-22T00:03:06.662Z,11.53
2023-12-22T00:05:34.914Z,11.53
2023-12-22T00:08:03.208Z,11.56
2023-12-22T00:10:31.466Z,11.58
2023-12-22T00:13:01.086Z,11.57
2023-12-22T00:15:29.281Z,11.60
2023-12-22T00:17:57.516Z,11.59
2023-12-22T00:20:25.758Z,11.62
2023-12-22T00:22:53.991Z,11.62
2023-12-22T00:25:22.190Z,11.65
2023-12-22T00:27:50.566Z,11.67
2023-12-22T00:30:20.328Z,11.65
2023-12-22T00:32:48.825Z,11.64
2023-12-22T00:35:17.095Z,11.63
2023-12-22T00:37:45.238Z,11.62
2023-12-22T00:40:13.879Z,11.59
2023-12-22T00:42:42.064Z,11.60
2023-12-22T00:45:10.857Z,11.58
2023-12-22T00:47:40.511Z,11.55
2023-12-22T00:50:09.417Z,11.53
2023-12-22T00:52:37.855Z,11.52
2023-12-22T00:55:06.768Z,11.55
2023-12-22T00:57:38.220Z,11.56
2023-12-22T01:00:10.381Z,11.49
2023-12-22T01:02:38.450Z,11.49
2023-12-22T01:05:09.016Z,11.49
2023-12-22T01:07:37.470Z,11.48
2023-12-22T01:10:06.486Z,11.47
2023-12-22T01:12:34.674Z,11.44
2023-12-22T01:15:03.282Z,11.46
2023-12-22T01:17:31.610Z,11.44
2023-12-22T01:20:00.064Z,11.43
2023-12-22T01:22:29.874Z,11.42
2023-12-22T01:24:58.132Z,11.46
2023-12-22T01:27:26.384Z,11.47
2023-12-22T01:29:55.205Z,11.46
2023-12-22T01:32:23.284Z,11.51
2023-12-22T01:34:51.508Z,11.52
2023-12-22T01:37:21.417Z,11.52
2023-12-22T01:39:50.977Z,11.57
2023-12-22T01:42:21.756Z,11.58
2023-12-22T01:44:49.979Z,11.59
2023-12-22T01:47:18.226Z,11.59
2023-12-22T01:49:46.472Z,11.59
2023-12-22T01:52:14.827Z,11.54
2023-12-22T01:54:43.674Z,11.52
2023-12-22T01:57:18.755Z,11.44
2023-12-22T01:59:47.634Z,11.38
2023-12-22T02:02:16.016Z,11.32
2023-12-22T02:04:44.808Z,11.32
2023-12-22T02:07:16.504Z,11.32
2023-12-22T02:09:44.669Z,11.34
2023-12-22T02:12:14.262Z,11.33
2023-12-22T02:14:42.538Z,11.32
2023-12-22T02:17:18.755Z,11.35
2023-12-22T02:19:51.350Z,11.32
2023-12-22T02:22:19.605Z,11.34
2023-12-22T02:24:51.335Z,11.30
2023-12-22T02:27:36.147Z,11.28
2023-12-22T02:30:10.966Z,11.26
2023-12-22T02:32:43.933Z,11.27
2023-12-22T02:35:16.915Z,11.27
2023-12-22T02:37:49.466Z,11.29
2023-12-22T02:40:20.697Z,11.28
2023-12-22T02:42:49.163Z,11.23
2023-12-22T02:45:18.367Z,11.23
2023-12-22T02:47:47.476Z,11.24
2023-12-22T02:50:17.186Z,11.23
2023-12-22T02:52:45.726Z,11.27
2023-12-22T02:55:14.307Z,11.26
2023-12-22T02:57:43.969Z,11.25
2023-12-22T03:00:13.185Z,11.24
2023-12-22T03:02:41.477Z,11.24
2023-12-22T03:05:09.905Z,11.23
2023-12-22T03:07:38.256Z,11.23
2023-12-22T03:10:06.939Z,11.23
2023-12-22T03:12:35.093Z,11.21
2023-12-22T03:15:05.110Z,11.18
2023-12-22T03:17:33.372Z,11.20
2023-12-22T03:20:01.627Z,11.24
2023-12-22T03:22:32.829Z,11.22
2023-12-22T03:25:01.167Z,11.20
2023-12-22T03:27:31.937Z,11.22
2023-12-22T03:30:05.008Z,11.16
2023-12-22T03:32:33.233Z,11.17
2023-12-22T03:35:04.312Z,11.15
2023-12-22T03:37:32.581Z,11.16
2023-12-22T03:40:00.781Z,11.09
2023-12-22T03:42:29.052Z,11.12
2023-12-22T03:44:57.254Z,11.10
2023-12-22T03:47:26.996Z,11.09
2023-12-22T03:49:55.320Z,11.11
2023-12-22T03:52:23.591Z,11.11
2023-12-22T03:54:52.127Z,11.11
2023-12-22T03:57:20.228Z,11.12
2023-12-22T03:59:48.467Z,11.14
2023-12-22T04:02:16.987Z,11.10
2023-12-22T04:04:46.641Z,11.11
2023-12-22T04:07:15.479Z,11.11
2023-12-22T04:09:45.036Z,11.09
2023-12-22T04:12:13.405Z,11.12
2023-12-22T04:14:41.591Z,11.11
2023-12-22T04:17:11.402Z,11.09
2023-12-22T04:19:39.895Z,11.08
2023-12-22T04:22:09.540Z,11.10
2023-12-22T04:24:37.747Z,11.15
2023-12-22T04:27:06.333Z,11.18
2023-12-22T04:29:37.609Z,11.22
2023-12-22T04:32:06.111Z,11.24
2023-12-22T04:34:35.434Z,11.23
2023-12-22T04:37:03.740Z,11.23
2023-12-22T04:39:33.296Z,11.26
2023-12-22T04:42:01.954Z,11.25
2023-12-22T04:44:30.183Z,11.25
2023-12-22T04:46:58.448Z,11.29
2023-12-22T04:49:26.882Z,11.25
2023-12-22T04:51:55.146Z,11.24
2023-12-22T04:54:23.582Z,11.25
2023-12-22T04:56:53.285Z,11.23
2023-12-22T04:59:21.731Z,11.25
2023-12-22T05:01:49.955Z,11.25
2023-12-22T05:04:18.751Z,11.23
2023-12-22T05:06:47.783Z,11.27
2023-12-22T05:09:16.000Z,11.26
2023-12-22T05:11:46.976Z,11.29
2023-12-22T05:14:16.713Z,11.26
2023-12-22T05:16:47.740Z,11.30
2023-12-22T05:19:16.762Z,11.26
2023-12-22T05:21:45.036Z,11.28
2023-12-22T05:24:13.490Z,11.28
2023-12-22T05:26:44.093Z,11.32
2023-12-22T05:29:14.830Z,11.29
2023-12-22T05:31:48.265Z,11.31
2023-12-22T05:34:16.887Z,11.34
2023-12-22T05:36:45.252Z,11.32
2023-12-22T05:39:13.526Z,11.35
2023-12-22T05:41:42.201Z,11.35
2023-12-22T05:44:10.680Z,11.35
2023-12-22T05:46:40.270Z,11.31
2023-12-22T05:49:10.035Z,11.29
2023-12-22T05:51:41.849Z,11.26
2023-12-22T05:54:11.682Z,11.20
2023-12-22T05:56:40.073Z,11.15
2023-12-22T05:59:08.292Z,11.09
2023-12-22T06:01:36.493Z,11.04
2023-12-22T06:04:04.869Z,10.96
2023-12-22T06:06:34.398Z,10.92
2023-12-22T06:09:02.644Z,10.90
2023-12-22T06:11:31.934Z,10.90
2023-12-22T06:14:00.472Z,10.88
2023-12-22T06:16:28.889Z,10.88
2023-12-22T06:18:57.316Z,10.89
2023-12-22T06:21:26.168Z,10.91
2023-12-22T06:23:55.898Z,10.92
2023-12-22T06:26:26.897Z,10.95
2023-12-22T06:28:55.709Z,10.95
2023-12-22T06:31:24.634Z,10.97
2023-12-22T06:33:53.956Z,11.00
2023-12-22T06:36:24.486Z,10.97
2023-12-22T06:38:53.280Z,10.96
2023-12-22T06:41:27.514Z,10.97
2023-12-22T06:43:57.421Z,10.96
2023-12-22T06:46:28.232Z,10.98
2023-12-22T06:48:57.888Z,10.96
2023-12-22T06:51:28.315Z,10.98
2023-12-22T06:53:57.569Z,10.96
2023-12-22T06:56:29.006Z,10.98
2023-12-22T06:58:58.617Z,10.93
2023-12-22T07:01:28.350Z,10.96
2023-12-22T07:03:57.497Z,10.97
2023-12-22T07:06:27.366Z,10.97
2023-12-22T07:09:16.763Z,11.02
2023-12-22T07:11:48.685Z,11.03
2023-12-22T07:14:17.579Z,11.00
2023-12-22T07:16:45.972Z,11.02
2023-12-22T07:19:14.812Z,11.03
2023-12-22T07:21:45.492Z,11.01
2023-12-22T07:24:16.511Z,11.00
2023-12-22T07:26:47.156Z,11.04
2023-12-22T07:29:15.351Z,11.03
2023-12-22T07:31:44.597Z,11.04
2023-12-22T07:34:14.136Z,11.03
2023-12-22T07:36:47.888Z,10.97
2023-12-22T07:39:20.031Z,11.00
2023-12-22T07:41:49.721Z,11.01
2023-12-22T07:44:18.040Z,11.05
2023-12-22T07:46:47.645Z,11.06
2023-12-22T07:49:19.452Z,11.00
2023-12-22T07:51:47.687Z,10.96
2023-12-22T07:54:15.930Z,10.97
2023-12-22T07:56:44.325Z,10.96
2023-12-22T07:59:23.577Z,10.94
2023-12-22T08:01:59.636Z,10.96
2023-12-22T08:04:28.130Z,10.95
2023-12-22T08:06:56.452Z,10.94
2023-12-22T08:09:24.790Z,10.97
2023-12-22T08:11:58.341Z,10.95
2023-12-22T08:14:28.127Z,10.91
2023-12-22T08:16:56.340Z,10.89
2023-12-22T08:19:26.344Z,10.88
2023-12-22T08:21:56.950Z,10.87
2023-12-22T08:24:25.894Z,10.83
2023-12-22T08:26:54.304Z,10.88
2023-12-22T08:29:22.531Z,10.87
2023-12-22T08:31:52.447Z,10.84
2023-12-22T08:34:20.826Z,10.81
2023-12-22T08:36:48.928Z,10.83
2023-12-22T08:39:17.308Z,10.85
2023-12-22T08:41:46.007Z,10.81
2023-12-22T08:44:16.176Z,10.77
2023-12-22T08:46:45.029Z,10.81
2023-12-22T08:49:14.805Z,10.80
2023-12-22T08:51:44.313Z,10.75
2023-12-22T08:54:12.796Z,10.69
2023-12-22T08:56:40.932Z,10.71
2023-12-22T08:59:10.407Z,10.73
2023-12-22T09:01:38.772Z,10.68
2023-12-22T09:04:09.774Z,10.67
2023-12-22T09:06:40.617Z,10.71
2023-12-22T09:09:08.919Z,10.68
2023-12-22T09:11:37.547Z,10.65
2023-12-22T09:14:10.918Z,10.69
2023-12-22T09:16:39.978Z,10.67
2023-12-22T09:19:09.430Z,10.70
2023-12-22T09:21:37.772Z,10.71
2023-12-22T09:24:07.928Z,10.74
2023-12-22T09:26:36.302Z,10.71
2023-12-22T09:29:04.682Z,10.73
2023-12-22T09:31:34.118Z,10.77
2023-12-22T09:34:04.276Z,10.80
2023-12-22T09:36:32.802Z,10.78
2023-12-22T09:39:01.309Z,10.78
2023-12-22T09:41:31.162Z,10.82
2023-12-22T09:44:02.900Z,10.84
2023-12-22T09:46:32.840Z,10.83
2023-12-22T09:49:02.800Z,10.81
2023-12-22T09:51:32.743Z,10.77
2023-12-22T09:54:03.925Z,10.74
2023-12-22T09:56:35.836Z,10.81
2023-12-22T09:59:04.178Z,10.87
2023-12-22T10:01:33.489Z,10.93
2023-12-22T10:04:02.206Z,10.96
2023-12-22T10:06:31.231Z,10.99
2023-12-22T10:08:59.702Z,11.05
2023-12-22T10:11:29.463Z,11.06
2023-12-22T10:13:59.337Z,11.09
2023-12-22T10:16:28.607Z,11.09
2023-12-22T10:18:57.383Z,11.15
2023-12-22T10:21:25.587Z,11.16
2023-12-22T10:23:54.028Z,11.16
2023-12-22T10:26:22.706Z,11.17
2023-12-22T10:28:51.885Z,11.21
2023-12-22T10:31:21.504Z,11.23
2023-12-22T10:33:49.822Z,11.25
2023-12-22T10:36:18.038Z,11.25
2023-12-22T10:38:47.484Z,11.31
2023-12-22T10:41:16.019Z,11.29
2023-12-22T10:43:44.861Z,11.35
2023-12-22T10:46:14.506Z,11.38
2023-12-22T10:48:48.580Z,11.39
2023-12-22T10:51:17.999Z,11.43
2023-12-22T10:53:46.824Z,11.38
2023-12-22T10:56:15.321Z,11.38
2023-12-22T10:58:46.850Z,11.42
2023-12-22T11:01:17.106Z,11.41
2023-12-22T11:03:50.875Z,11.41
2023-12-22T11:06:25.975Z,11.45
2023-12-22T11:08:55.466Z,11.43
2023-12-22T11:11:30.790Z,11.36
2023-12-22T11:13:59.699Z,11.36
2023-12-22T11:16:31.262Z,11.42
2023-12-22T11:19:01.902Z,11.48
2023-12-22T11:21:31.045Z,11.50
2023-12-22T11:23:59.745Z,11.57
2023-12-22T11:26:28.287Z,11.58
2023-12-22T11:28:57.523Z,11.60
2023-12-22T11:31:28.267Z,11.61
2023-12-22T11:34:04.445Z,11.59
2023-12-22T11:36:41.208Z,11.61
2023-12-22T11:39:09.694Z,11.67
2023-12-22T11:41:39.823Z,11.65
2023-12-22T11:44:09.038Z,11.63
2023-12-22T11:46:40.319Z,11.63
2023-12-22T11:49:09.038Z,11.65
2023-12-22T11:51:37.813Z,11.63
2023-12-22T11:54:46.116Z,11.62
2023-12-22T11:57:35.847Z,11.63
2023-12-22T12:00:09.074Z,11.68
2023-12-22T12:02:39.118Z,11.68
2023-12-22T12:05:10.212Z,11.71
2023-12-22T12:07:45.892Z,11.68
2023-12-22T12:10:55.688Z,11.64
2023-12-22T12:13:27.893Z,11.77
2023-12-22T12:15:57.952Z,11.79
2023-12-22T12:18:27.219Z,11.77
2023-12-22T12:20:55.748Z,11.75
2023-12-22T12:23:29.103Z,11.76
2023-12-22T12:25:59.230Z,11.80
2023-12-22T12:28:27.281Z,11.76
2023-12-22T12:31:01.703Z,11.78
2023-12-22T12:33:31.001Z,11.74
2023-12-22T12:36:01.010Z,11.77
2023-12-22T12:38:46.871Z,11.79
2023-12-22T12:41:20.628Z,11.82
2023-12-22T12:43:50.636Z,11.83
2023-12-22T12:46:18.871Z,11.87
2023-12-22T12:48:47.308Z,11.89
2023-12-22T12:51:15.632Z,11.91
2023-12-22T12:53:43.910Z,11.92
2023-12-22T12:56:15.412Z,11.91
2023-12-22T12:58:47.757Z,11.88
2023-12-22T13:01:25.868Z,11.96
2023-12-22T13:03:59.305Z,11.97
2023-12-22T13:06:27.553Z,12.01
2023-12-22T13:08:55.947Z,12.01
2023-12-22T13:11:25.438Z,12.07
2023-12-22T13:13:55.122Z,12.10
2023-12-22T13:16:27.042Z,12.14
2023-12-22T13:18:56.114Z,12.16
2023-12-22T13:21:25.157Z,12.16
2023-12-22T13:24:11.773Z,12.16
2023-12-22T13:26:40.566Z,12.17
2023-12-22T13:29:11.230Z,12.19
2023-12-22T13:31:40.721Z,12.26
2023-12-22T13:34:11.668Z,12.27
2023-12-22T13:36:40.281Z,12.28
2023-12-22T13:39:09.381Z,12.31
2023-12-22T13:41:40.311Z,12.21
2023-12-22T13:44:10.779Z,12.17
2023-12-22T13:46:42.256Z,12.13
2023-12-22T13:49:10.766Z,12.05
2023-12-22T13:51:43.331Z,12.03
2023-12-22T13:54:11.693Z,12.06
2023-12-22T13:56:43.307Z,12.08
2023-12-22T13:59:13.767Z,12.08
2023-12-22T14:01:43.489Z,12.10
2023-12-22T14:04:12.008Z,12.10
2023-12-22T14:06:42.695Z,12.04
2023-12-22T14:09:14.809Z,12.05
2023-12-22T14:11:53.187Z,12.09
2023-12-22T14:14:27.075Z,12.05
2023-12-22T14:16:55.352Z,12.08
2023-12-22T14:19:23.696Z,12.06
2023-12-22T14:21:51.955Z,12.06
2023-12-22T14:24:20.773Z,12.08
2023-12-22T14:26:56.508Z,12.06
2023-12-22T14:29:26.482Z,12.08
2023-12-22T14:31:54.812Z,12.07
2023-12-22T14:34:23.245Z,12.07
2023-12-22T14:36:51.985Z,12.08
2023-12-22T14:39:20.283Z,12.08
2023-12-22T14:41:48.600Z,12.10
2023-12-22T14:44:16.942Z,12.12
2023-12-22T14:46:47.185Z,12.12
2023-12-22T14:49:15.568Z,12.11
2023-12-22T14:51:43.920Z,12.11
2023-12-22T14:54:12.973Z,12.14
2023-12-22T14:56:42.783Z,12.06
2023-12-22T14:59:11.749Z,12.05
2023-12-22T15:01:40.178Z,12.02
2023-12-22T15:04:10.271Z,12.02
2023-12-22T15:06:40.333Z,12.08
2023-12-22T15:09:08.667Z,12.09
2023-12-22T15:11:42.513Z,12.05
2023-12-22T15:14:11.192Z,12.01
2023-12-22T15:16:42.380Z,12.03
2023-12-22T15:19:12.351Z,12.01
2023-12-22T15:21:41.266Z,12.04
2023-12-22T15:24:09.578Z,11.99
2023-12-22T15:26:37.990Z,11.99
2023-12-22T15:29:06.583Z,12.00
2023-12-22T15:31:37.399Z,11.95
2023-12-22T15:34:07.165Z,11.96
2023-12-22T15:36:37.440Z,11.92
2023-12-22T15:39:05.839Z,11.90
2023-12-22T15:41:34.196Z,11.85
2023-12-22T15:44:02.561Z,11.80
2023-12-22T15:46:30.714Z,11.76
2023-12-22T15:48:59.644Z,11.67
2023-12-22T15:51:27.914Z,11.66
2023-12-22T15:53:57.496Z,11.61
2023-12-22T15:56:25.825Z,11.61
2023-12-22T15:58:54.159Z,11.63
2023-12-22T16:01:25.404Z,11.62
2023-12-22T16:03:53.582Z,11.58
2023-12-22T16:06:22.131Z,11.58
2023-12-22T16:08:50.573Z,11.55
2023-12-22T16:11:21.729Z,11.53
2023-12-22T16:13:51.982Z,11.54
2023-12-22T16:16:21.019Z,11.56
2023-12-22T16:18:49.623Z,11.54
2023-12-22T16:21:18.293Z,11.49
2023-12-22T16:23:46.849Z,11.46
2023-12-22T16:26:15.333Z,11.44
2023-12-22T16:28:45.000Z,11.43
2023-12-22T16:31:14.269Z,11.42
2023-12-22T16:33:42.794Z,11.44
2023-12-22T16:36:11.912Z,11.40
2023-12-22T16:38:40.411Z,11.43
2023-12-22T16:41:08.806Z,11.43
2023-12-22T16:43:37.275Z,11.40
2023-12-22T16:46:10.062Z,11.35
2023-12-22T16:48:38.495Z,11.31
2023-12-22T16:51:07.094Z,11.31
2023-12-22T16:53:35.467Z,11.27
2023-12-22T16:56:03.888Z,11.26
2023-12-22T16:58:41.303Z,11.27
2023-12-22T17:01:22.621Z,11.20
2023-12-22T17:03:59.920Z,11.22
2023-12-22T17:06:28.575Z,11.20
2023-12-22T17:08:57.577Z,11.25
2023-12-22T17:11:25.941Z,11.24
2023-12-22T17:13:54.247Z,11.29
2023-12-22T17:16:24.214Z,11.29
2023-12-22T17:18:53.189Z,11.30
2023-12-22T17:21:21.488Z,11.27
2023-12-22T17:23:52.658Z,11.32
2023-12-22T17:26:20.989Z,11.31
2023-12-22T17:28:50.429Z,11.30
2023-12-22T17:31:19.580Z,11.27
2023-12-22T17:33:49.663Z,11.21
2023-12-22T17:36:26.194Z,11.18
2023-12-22T17:38:54.712Z,11.15
2023-12-22T17:41:29.317Z,11.15
2023-12-22T17:43:59.398Z,11.10
2023-12-22T17:46:27.634Z,11.05
2023-12-22T17:48:57.561Z,11.00
2023-12-22T17:51:25.967Z,11.00
2023-12-22T17:53:54.177Z,10.94
2023-12-22T17:56:51.172Z,10.94
2023-12-22T17:59:19.512Z,10.90
2023-12-22T18:01:49.633Z,10.94
2023-12-22T18:04:19.529Z,10.88
2023-12-22T18:06:48.330Z,10.86
2023-12-22T18:09:16.687Z,10.91
2023-12-22T18:11:46.492Z,10.89
2023-12-22T18:14:15.127Z,10.93
2023-12-22T18:16:44.908Z,10.94
2023-12-22T18:19:15.785Z,10.96
2023-12-22T18:21:45.349Z,10.98
2023-12-22T18:24:14.387Z,11.00
2023-12-22T18:26:42.610Z,11.02
2023-12-22T18:29:10.916Z,11.06
2023-12-22T18:31:39.485Z,11.06
2023-12-22T18:34:08.950Z,11.05
2023-12-22T18:36:37.294Z,11.03
2023-12-22T18:39:07.056Z,11.04
2023-12-22T18:41:35.371Z,10.96
2023-12-22T18:44:04.581Z,10.96
2023-12-22T18:46:34.608Z,11.02
2023-12-22T18:49:02.877Z,11.03
2023-12-22T18:51:31.171Z,11.02
2023-12-22T18:54:00.806Z,11.08
2023-12-22T18:56:30.404Z,11.09
2023-12-22T18:58:58.953Z,11.13
2023-12-22T19:01:40.254Z,11.10
2023-12-22T19:04:19.078Z,11.14
2023-12-22T19:06:47.634Z,11.14
2023-12-22T19:09:15.922Z,11.11
2023-12-22T19:11:48.159Z,11.09
2023-12-22T19:14:16.499Z,11.09
2023-12-22T19:16:44.780Z,11.08
2023-12-22T19:19:16.657Z,11.06
2023-12-22T19:21:49.428Z,11.04
2023-12-22T19:24:17.757Z,10.98
2023-12-22T19:26:48.761Z,11.00
2023-12-22T19:29:17.532Z,10.97
2023-12-22T19:31:45.802Z,10.97
2023-12-22T19:34:14.030Z,10.94
2023-12-22T19:36:42.902Z,10.90
2023-12-22T19:39:11.258Z,10.93
2023-12-22T19:41:39.491Z,10.90
2023-12-22T19:44:09.445Z,10.92
2023-12-22T19:46:37.697Z,10.93
2023-12-22T19:49:09.171Z,10.94
2023-12-22T19:51:37.290Z,10.92
2023-12-22T19:54:11.638Z,10.95
2023-12-22T19:56:42.913Z,10.96
2023-12-22T19:59:12.613Z,10.96
2023-12-22T20:01:40.906Z,10.97
2023-12-22T20:04:09.187Z,11.00
2023-12-22T20:06:37.460Z,10.99
2023-12-22T20:09:08.035Z,10.99
2023-12-22T20:11:36.449Z,11.00
2023-12-22T20:14:04.821Z,10.95
2023-12-22T20:16:37.142Z,10.95
2023-12-22T20:19:05.554Z,10.91
2023-12-22T20:21:33.956Z,10.90
2023-12-22T20:24:02.359Z,10.85
2023-12-22T20:26:31.164Z,10.90
2023-12-22T20:28:59.399Z,10.88
2023-12-22T20:31:27.756Z,10.89
2023-12-22T20:33:57.258Z,10.90
2023-12-22T20:36:25.453Z,10.90
2023-12-22T20:38:53.704Z,10.91
2023-12-22T20:41:22.091Z,10.93
2023-12-22T20:43:51.220Z,10.94
2023-12-22T20:46:19.712Z,10.94
2023-12-22T20:48:48.419Z,10.91
2023-12-22T20:51:18.434Z,10.93
2023-12-22T20:53:46.670Z,10.95
2023-12-22T20:56:21.834Z,10.95
2023-12-22T20:58:50.365Z,10.93
2023-12-22T21:01:19.154Z,10.97
2023-12-22T21:03:48.735Z,10.91
2023-12-22T21:06:18.617Z,10.94
2023-12-22T21:08:49.689Z,10.92
2023-12-22T21:11:22.690Z,10.96
2023-12-22T21:13:51.181Z,10.97
2023-12-22T21:16:20.558Z,10.99
2023-12-22T21:18:49.068Z,10.99
2023-12-22T21:21:19.374Z,10.98
2023-12-22T21:23:47.483Z,11.01
2023-12-22T21:26:22.634Z,11.05
2023-12-22T21:28:52.879Z,11.06
2023-12-22T21:31:21.830Z,11.09
2023-12-22T21:33:50.382Z,11.12
2023-12-22T21:36:26.013Z,11.14
2023-12-22T21:38:55.410Z,11.17
2023-12-22T21:41:24.712Z,11.20
2023-12-22T21:43:53.020Z,11.19
2023-12-22T21:46:22.866Z,11.24
2023-12-22T21:48:51.094Z,11.24
2023-12-22T21:51:24.885Z,11.25
2023-12-22T21:53:54.853Z,11.26
2023-12-22T21:56:23.498Z,11.26
2023-12-22T21:58:51.717Z,11.27
2023-12-22T22:01:20.931Z,11.27
2023-12-22T22:03:49.171Z,11.33
2023-12-22T22:06:20.523Z,11.32
2023-12-22T22:08:48.675Z,11.35
2023-12-22T22:11:19.244Z,11.37
2023-12-22T22:13:47.624Z,11.35
2023-12-22T22:16:15.808Z,11.39
2023-12-22T22:18:44.425Z,11.39
2023-12-22T22:21:14.248Z,11.40
2023-12-22T22:23:42.459Z,11.41
2023-12-22T22:26:11.344Z,11.43
2023-12-22T22:28:41.348Z,11.44
2023-12-22T22:31:09.759Z,11.45
2023-12-22T22:33:38.098Z,11.41
2023-12-22T22:36:07.082Z,11.40
2023-12-22T22:38:35.214Z,11.42
2023-12-22T22:41:03.786Z,11.41
2023-12-22T22:43:32.147Z,11.43
2023-12-22T22:46:03.403Z,11.47
2023-12-22T22:48:31.889Z,11.45
2023-12-22T22:51:00.099Z,11.45
2023-12-22T22:53:28.340Z,11.44
2023-12-22T22:55:56.537Z,11.40
2023-12-22T22:58:24.913Z,11.41
2023-12-22T23:00:53.347Z,11.39
2023-12-22T23:03:23.680Z,11.41
2023-12-22T23:05:52.419Z,11.43
2023-12-22T23:08:20.661Z,11.43
2023-12-22T23:10:49.042Z,11.41
2023-12-22T23:13:17.685Z,11.42
2023-12-22T23:15:46.063Z,11.41
2023-12-22T23:18:14.498Z,11.44
2023-12-22T23:20:44.609Z,11.45
2023-12-22T23:23:12.889Z,11.42
2023-12-22T23:25:41.784Z,11.45
2023-12-22T23:28:09.988Z,11.45
2023-12-22T23:30:38.200Z,11.46
2023-12-22T23:33:06.777Z,11.45
2023-12-22T23:35:35.114Z,11.47
2023-12-22T23:38:05.210Z,11.47
2023-12-22T23:40:33.530Z,11.50
2023-12-22T23:43:01.891Z,11.54
2023-12-22T23:45:30.281Z,11.51
2023-12-22T23:47:59.377Z,11.51
2023-12-22T23:50:28.059Z,11.50
2023-12-22T23:52:56.223Z,11.51
2023-12-22T23:55:26.300Z,11.55
2023-12-22T23:57:57.507Z,11.57
